Time;durP1;ratioP1;P1;durP2;ratioP2;P2;SDS_P1;SDS_P2;PMS_P1;PMS_P2;Temp;Humidity;BMP_temperature;BMP_pressure;BME280_temperature;BME280_humidity;BME280_pressure;Samples;Min_cycle;Max_cycle;Signal;HPM_P1;HPM_P2
2022/01/13 00:01:15;;;;;;;30.67;16.17;;;1.50;99.90;;;;;;8470067;27;20220;-65
2022/01/13 00:05:18;;;;;;;29.97;16.33;;;1.50;99.90;;;;;;8484045;27;20183;-63
2022/01/13 00:09:19;;;;;;;34.13;16.83;;;1.50;99.90;;;;;;8477920;27;20228;-63
2022/01/13 00:13:26;;;;;;;34.93;16.23;;;1.40;99.90;;;;;;8482188;27;20505;-64
2022/01/13 00:17:43;;;;;;;34.73;16.63;;;1.40;99.90;;;;;;8472144;27;20208;-64
2022/01/13 00:22:00;;;;;;;31.43;16.43;;;1.40;99.90;;;;;;8479676;27;20182;-71
2022/01/13 00:26:06;;;;;;;33.67;17.50;;;1.40;99.90;;;;;;8490502;27;20425;-66
2022/01/13 00:30:14;;;;;;;32.60;16.00;;;1.30;99.90;;;;;;8484330;27;20184;-63
2022/01/13 00:34:15;;;;;;;34.63;17.50;;;1.30;99.90;;;;;;8477927;27;20187;-63
2022/01/13 00:38:17;;;;;;;34.30;17.03;;;1.30;99.90;;;;;;8474275;27;20299;-63
2022/01/13 00:42:18;;;;;;;35.17;18.20;;;1.40;99.90;;;;;;8490603;27;20175;-65
2022/01/13 00:46:22;;;;;;;31.37;17.07;;;1.40;99.90;;;;;;8479533;27;20180;-64
2022/01/13 00:50:22;;;;;;;34.43;16.30;;;1.40;99.90;;;;;;8481210;27;20187;-64
2022/01/13 00:54:23;;;;;;;29.83;17.03;;;1.40;99.90;;;;;;8478236;27;20222;-63
2022/01/13 00:58:29;;;;;;;29.40;14.67;;;1.30;99.90;;;;;;8484542;27;20287;-66
2022/01/13 01:02:30;;;;;;;23.10;11.97;;;1.40;99.90;;;;;;8465039;27;20275;-65
2022/01/13 01:06:32;;;;;;;23.00;12.30;;;1.40;99.90;;;;;;8471805;27;20354;-64
2022/01/13 01:10:33;;;;;;;24.23;12.17;;;1.30;99.90;;;;;;8473266;27;20274;-63
2022/01/13 01:14:37;;;;;;;22.80;11.97;;;1.30;99.90;;;;;;8467139;27;20187;-64
2022/01/13 01:26:56;;;;;;;21.83;12.33;;;1.30;99.90;;;;;;8472798;27;20183;-64
2022/01/13 01:30:56;;;;;;;21.13;12.27;;;1.30;99.90;;;;;;8479663;27;20176;-63
2022/01/13 01:35:03;;;;;;;26.27;12.17;;;1.30;99.90;;;;;;8476697;27;20193;-65
2022/01/13 01:39:06;;;;;;;24.37;12.17;;;1.30;99.90;;;;;;8488325;27;20215;-63
2022/01/13 01:43:07;;;;;;;23.97;11.27;;;1.30;99.90;;;;;;8463952;27;20236;-63
2022/01/13 01:47:13;;;;;;;25.17;11.87;;;1.30;99.90;;;;;;8486297;27;20255;-64
2022/01/13 01:51:14;;;;;;;20.67;12.27;;;1.40;99.90;;;;;;8483140;27;20190;-66
2022/01/13 01:55:17;;;;;;;20.00;11.60;;;1.40;99.90;;;;;;8473213;27;20202;-63
2022/01/13 01:59:21;;;;;;;25.33;13.00;;;1.40;99.90;;;;;;8480354;27;20207;-63
2022/01/13 02:03:24;;;;;;;27.20;12.73;;;1.40;99.90;;;;;;8461747;27;20244;-64
2022/01/13 02:07:25;;;;;;;25.10;12.00;;;1.40;99.90;;;;;;8485700;27;20189;-63
2022/01/13 02:11:27;;;;;;;25.47;12.70;;;1.50;99.90;;;;;;8464893;27;20184;-64
2022/01/13 02:15:33;;;;;;;22.93;12.23;;;1.50;99.90;;;;;;8483277;27;20332;-64
2022/01/13 02:19:37;;;;;;;22.00;12.33;;;1.50;99.90;;;;;;8471832;27;20216;-63
2022/01/13 02:23:39;;;;;;;21.50;11.20;;;1.60;99.90;;;;;;8476134;27;20184;-63
2022/01/13 02:27:41;;;;;;;26.10;12.43;;;1.60;99.90;;;;;;8478837;27;20191;-63
2022/01/13 02:31:42;;;;;;;19.97;10.77;;;1.60;99.90;;;;;;8470307;27;20485;-62
2022/01/13 02:35:43;;;;;;;28.77;12.43;;;1.70;99.90;;;;;;8476811;27;20252;-63
2022/01/13 02:39:44;;;;;;;21.97;12.03;;;1.60;99.90;;;;;;8468075;27;20206;-63
2022/01/13 02:43:47;;;;;;;25.37;13.00;;;1.70;99.90;;;;;;8460353;27;20195;-62
2022/01/13 02:48:10;;;;;;;20.73;11.47;;;1.70;99.90;;;;;;8473096;27;20183;-63
2022/01/13 02:52:08;;;;;;;22.30;11.40;;;1.70;99.90;;;;;;8483550;27;20194;-64
2022/01/13 02:56:09;;;;;;;23.63;12.70;;;1.80;99.90;;;;;;8478068;27;20290;-63
2022/01/13 03:00:14;;;;;;;21.37;12.57;;;1.80;99.90;;;;;;8483339;27;20203;-63
2022/01/13 03:04:15;;;;;;;22.87;12.60;;;1.80;99.90;;;;;;8452475;27;20180;-64
2022/01/13 03:08:16;;;;;;;24.20;12.97;;;1.80;99.90;;;;;;8469120;27;20252;-63
2022/01/13 03:12:17;;;;;;;23.73;13.07;;;1.80;99.90;;;;;;8469500;27;20210;-64
2022/01/13 03:16:18;;;;;;;25.27;13.10;;;1.80;99.90;;;;;;8462538;28;20270;-63
2022/01/13 03:20:19;;;;;;;21.23;12.97;;;1.80;99.90;;;;;;8461842;28;20220;-62
2022/01/13 03:24:20;;;;;;;20.93;11.70;;;1.90;99.90;;;;;;8474546;28;20187;-65
2022/01/13 03:33:02;;;;;;;20.43;11.47;;;1.90;99.90;;;;;;8420261;28;20241;-62
2022/01/13 03:37:03;;;;;;;22.47;11.57;;;1.90;99.90;;;;;;8439492;27;20194;-64
2022/01/13 03:41:04;;;;;;;16.90;10.67;;;1.90;99.90;;;;;;8486691;27;20186;-65
2022/01/13 03:45:05;;;;;;;17.17;10.30;;;2.00;99.90;;;;;;8486005;27;20186;-62
2022/01/13 03:49:07;;;;;;;16.87;10.47;;;2.00;99.90;;;;;;8477387;27;20182;-64
2022/01/13 03:53:27;;;;;;;18.50;10.27;;;2.00;99.90;;;;;;8476054;27;20508;-65
2022/01/13 03:57:46;;;;;;;15.73;9.93;;;2.00;99.90;;;;;;8472711;27;20267;-63
2022/01/13 04:02:06;;;;;;;20.50;9.53;;;2.10;99.90;;;;;;8462708;27;20179;-64
2022/01/13 04:06:16;;;;;;;17.87;9.43;;;2.10;99.90;;;;;;8476135;27;20187;-65
2022/01/13 04:10:45;;;;;;;16.80;9.67;;;2.10;99.90;;;;;;8477003;27;20192;-65
2022/01/13 04:14:53;;;;;;;17.83;9.30;;;2.20;99.90;;;;;;8485640;27;20186;-68
2022/01/13 04:18:59;;;;;;;17.13;8.67;;;2.20;99.90;;;;;;8484184;27;20204;-65
2022/01/13 04:23:00;;;;;;;16.37;8.60;;;2.20;99.90;;;;;;8478786;27;20182;-63
2022/01/13 04:27:01;;;;;;;14.87;8.93;;;2.30;99.90;;;;;;8489100;27;20179;-63
2022/01/13 04:31:03;;;;;;;16.53;8.63;;;2.30;99.90;;;;;;8476396;27;20274;-63
2022/01/13 04:35:04;;;;;;;13.17;9.60;;;2.30;99.90;;;;;;8470240;27;20181;-63
2022/01/13 04:39:08;;;;;;;13.07;8.00;;;2.30;99.90;;;;;;8469177;27;20294;-63
2022/01/13 04:43:08;;;;;;;17.93;8.23;;;2.40;99.90;;;;;;8467010;27;20184;-65
2022/01/13 04:47:10;;;;;;;17.30;9.07;;;2.40;99.90;;;;;;8471767;27;20189;-63
2022/01/13 04:51:11;;;;;;;16.50;9.03;;;2.40;99.90;;;;;;8476881;27;20389;-63
2022/01/13 04:55:13;;;;;;;14.43;8.90;;;2.40;99.90;;;;;;8485508;27;20216;-63
2022/01/13 04:59:14;;;;;;;13.10;8.77;;;2.40;99.90;;;;;;8488002;27;20498;-66
2022/01/13 05:03:15;;;;;;;19.97;9.27;;;2.40;99.90;;;;;;8468298;27;20175;-65
2022/01/13 05:07:15;;;;;;;18.07;9.57;;;2.40;99.90;;;;;;8482087;27;20278;-63
2022/01/13 05:11:17;;;;;;;15.63;9.03;;;2.40;99.90;;;;;;8485826;27;20175;-62
2022/01/13 05:15:23;;;;;;;12.83;9.17;;;2.40;99.90;;;;;;8474521;27;20306;-63
2022/01/13 05:19:30;;;;;;;17.23;9.87;;;2.40;99.90;;;;;;8475492;27;20207;-63
2022/01/13 05:23:31;;;;;;;14.30;8.57;;;2.40;99.90;;;;;;8462906;27;20186;-63
2022/01/13 05:27:32;;;;;;;18.13;9.90;;;2.50;99.90;;;;;;8482129;27;20235;-63
2022/01/13 05:31:33;;;;;;;14.60;9.43;;;2.50;99.90;;;;;;8470346;27;20185;-65
2022/01/13 05:35:36;;;;;;;17.97;9.57;;;2.50;99.90;;;;;;8476874;27;20191;-62
2022/01/13 05:39:36;;;;;;;14.37;9.07;;;2.50;99.90;;;;;;8475399;27;20298;-65
2022/01/13 05:43:37;;;;;;;16.50;9.67;;;2.50;99.90;;;;;;8474081;27;20172;-63
2022/01/13 05:47:38;;;;;;;16.93;9.80;;;2.50;99.90;;;;;;8485907;27;20179;-64
2022/01/13 05:51:39;;;;;;;17.03;9.67;;;2.60;99.90;;;;;;8465948;27;20183;-65
2022/01/13 05:55:40;;;;;;;15.87;8.20;;;2.60;99.90;;;;;;8486354;27;20196;-63
2022/01/13 05:59:40;;;;;;;14.10;7.87;;;2.60;99.90;;;;;;8474916;27;20211;-65
2022/01/13 06:03:41;;;;;;;15.47;8.30;;;2.60;99.90;;;;;;8459225;27;20190;-63
2022/01/13 06:07:42;;;;;;;14.40;8.50;;;2.60;99.90;;;;;;8473329;27;20191;-62
2022/01/13 06:11:52;;;;;;;14.50;7.43;;;2.60;99.90;;;;;;8467423;27;20180;-64
2022/01/13 06:15:53;;;;;;;17.23;9.17;;;2.60;99.90;;;;;;8473819;27;20195;-64
2022/01/13 06:19:55;;;;;;;14.67;7.83;;;2.60;99.90;;;;;;8468480;27;20207;-63
2022/01/13 06:23:57;;;;;;;15.83;8.00;;;2.60;99.90;;;;;;8471608;27;20258;-63
2022/01/13 06:27:57;;;;;;;13.03;8.17;;;2.60;99.90;;;;;;8476663;27;20200;-65
2022/01/13 06:31:59;;;;;;;14.50;7.67;;;2.70;99.90;;;;;;8485917;27;20526;-71
2022/01/13 06:36:00;;;;;;;17.30;8.30;;;2.60;99.90;;;;;;8488398;27;20186;-64
2022/01/13 06:40:02;;;;;;;12.93;7.57;;;2.70;99.90;;;;;;8470465;27;20302;-65
2022/01/13 06:44:03;;;;;;;12.30;7.87;;;2.70;99.90;;;;;;8454371;27;20287;-63
2022/01/13 06:48:05;;;;;;;14.63;8.30;;;2.70;99.90;;;;;;8479990;27;20210;-65
2022/01/13 06:52:06;;;;;;;15.97;8.60;;;2.70;99.90;;;;;;8473906;27;20198;-65
2022/01/13 06:56:07;;;;;;;15.77;8.07;;;2.60;99.90;;;;;;8485898;27;20209;-65
2022/01/13 07:00:09;;;;;;;13.77;7.43;;;2.60;99.90;;;;;;8471109;27;20200;-62
2022/01/13 07:04:12;;;;;;;13.30;7.90;;;2.60;99.90;;;;;;8485940;27;20180;-64
2022/01/13 07:08:13;;;;;;;13.67;8.50;;;2.70;99.90;;;;;;8463474;27;20430;-66
2022/01/13 07:12:13;;;;;;;13.97;8.53;;;2.70;99.90;;;;;;8486079;27;20266;-66
2022/01/13 07:16:14;;;;;;;20.00;7.43;;;2.80;99.90;;;;;;8482639;27;20213;-66
2022/01/13 07:20:15;;;;;;;13.93;7.60;;;2.80;99.90;;;;;;8471024;28;20237;-66
2022/01/13 07:24:16;;;;;;;15.83;7.87;;;2.90;99.90;;;;;;8472386;28;20172;-66
2022/01/13 07:28:17;;;;;;;11.50;7.57;;;2.90;99.90;;;;;;8473323;28;20260;-66
2022/01/13 07:32:18;;;;;;;17.17;8.33;;;2.90;99.90;;;;;;8472276;28;20213;-66
2022/01/13 07:36:19;;;;;;;17.00;7.67;;;3.00;99.90;;;;;;8466595;28;20183;-65
2022/01/13 07:40:20;;;;;;;14.17;8.00;;;3.00;99.90;;;;;;8475924;27;20208;-67
2022/01/13 07:44:21;;;;;;;14.07;8.33;;;3.00;99.90;;;;;;8473535;28;20178;-66
2022/01/13 07:48:24;;;;;;;13.27;8.07;;;2.90;99.90;;;;;;8470151;27;20187;-67
2022/01/13 07:52:27;;;;;;;11.33;7.57;;;3.00;99.90;;;;;;8474768;28;20190;-65
2022/01/13 07:56:28;;;;;;;15.80;8.30;;;3.00;99.90;;;;;;8476376;28;20217;-66
2022/01/13 08:00:29;;;;;;;16.43;8.30;;;3.00;99.90;;;;;;8471859;28;20426;-66
2022/01/13 08:04:30;;;;;;;13.93;7.57;;;3.00;99.90;;;;;;8461800;28;20193;-66
2022/01/13 08:08:32;;;;;;;13.87;7.97;;;3.00;99.90;;;;;;8484834;28;20270;-64
2022/01/13 08:12:33;;;;;;;14.00;7.60;;;3.00;99.90;;;;;;8468305;28;20191;-66
2022/01/13 08:16:36;;;;;;;13.73;7.63;;;2.90;99.90;;;;;;8469638;27;20199;-69
2022/01/13 08:20:37;;;;;;;12.90;7.27;;;3.00;99.90;;;;;;8465361;27;20209;-66
2022/01/13 08:24:38;;;;;;;13.63;7.67;;;3.00;99.90;;;;;;8482545;27;20192;-66
2022/01/13 08:28:38;;;;;;;13.53;7.77;;;3.00;99.90;;;;;;8491284;27;20175;-66
2022/01/13 08:32:39;;;;;;;15.07;7.40;;;3.00;99.90;;;;;;8481738;27;20215;-67
2022/01/13 08:36:40;;;;;;;14.60;7.57;;;3.10;99.90;;;;;;8481409;27;20201;-67
2022/01/13 08:40:41;;;;;;;14.70;8.10;;;3.10;99.90;;;;;;8490203;27;20204;-66
2022/01/13 08:44:42;;;;;;;18.73;7.97;;;3.10;99.90;;;;;;8457980;28;20184;-67
2022/01/13 08:48:43;;;;;;;14.93;7.87;;;3.10;99.90;;;;;;8462118;27;20183;-66
2022/01/13 08:52:44;;;;;;;14.00;7.60;;;3.10;99.90;;;;;;8483933;27;20179;-67
2022/01/13 08:56:45;;;;;;;11.67;7.00;;;3.20;99.90;;;;;;8465108;27;20205;-66
2022/01/13 09:00:46;;;;;;;12.10;6.90;;;3.20;99.90;;;;;;8461827;27;20208;-66
2022/01/13 09:04:47;;;;;;;11.37;7.70;;;3.30;99.90;;;;;;8467253;27;20185;-67
2022/01/13 09:08:48;;;;;;;15.33;6.60;;;3.30;99.90;;;;;;8488763;27;20179;-65
2022/01/13 09:12:49;;;;;;;10.37;6.90;;;3.30;99.90;;;;;;8485532;27;20182;-66
2022/01/13 09:16:49;;;;;;;13.30;7.20;;;3.30;99.90;;;;;;8491731;27;20263;-66
2022/01/13 09:20:51;;;;;;;14.27;6.47;;;3.40;99.90;;;;;;8485544;27;20301;-66
2022/01/13 09:24:52;;;;;;;14.73;7.77;;;3.30;99.90;;;;;;8474704;27;20205;-66
2022/01/13 09:28:53;;;;;;;14.90;6.93;;;3.40;99.90;;;;;;8482920;27;20176;-69
2022/01/13 09:32:53;;;;;;;16.03;7.03;;;3.30;99.90;;;;;;8480809;27;20212;-68
2022/01/13 09:36:54;;;;;;;16.40;7.23;;;3.30;99.90;;;;;;8471165;27;20179;-66
2022/01/13 09:40:55;;;;;;;12.67;6.67;;;3.30;99.90;;;;;;8474105;27;20276;-66
2022/01/13 09:44:57;;;;;;;10.47;6.23;;;3.30;99.90;;;;;;8477530;27;20187;-66
2022/01/13 09:49:03;;;;;;;13.80;6.10;;;3.30;99.90;;;;;;8479845;27;20207;-66
2022/01/13 09:53:04;;;;;;;12.57;6.23;;;3.40;99.90;;;;;;8476658;27;20258;-67
2022/01/13 09:57:07;;;;;;;14.10;6.37;;;3.30;99.90;;;;;;8478020;27;20316;-67
2022/01/13 10:01:08;;;;;;;15.33;6.60;;;3.40;99.90;;;;;;8475825;27;20210;-66
2022/01/13 10:05:09;;;;;;;9.13;5.23;;;3.50;99.90;;;;;;8460866;27;20248;-68
2022/01/13 10:09:11;;;;;;;10.03;6.27;;;3.60;99.90;;;;;;8487356;27;20253;-67
2022/01/13 10:13:15;;;;;;;11.07;7.07;;;3.50;99.90;;;;;;8479641;27;20183;-66
2022/01/13 10:17:16;;;;;;;13.20;6.77;;;3.70;99.90;;;;;;8478449;27;20192;-67
2022/01/13 10:21:19;;;;;;;10.93;6.73;;;3.80;99.90;;;;;;8476590;27;20179;-67
2022/01/13 10:25:29;;;;;;;12.60;6.93;;;3.80;99.90;;;;;;8475795;27;20259;-67
2022/01/13 10:29:52;;;;;;;10.40;6.87;;;3.80;99.90;;;;;;8476661;27;20189;-67
2022/01/13 10:33:53;;;;;;;12.07;6.00;;;4.00;99.90;;;;;;8460239;27;20190;-68
2022/01/13 10:37:58;;;;;;;9.53;6.17;;;4.10;99.90;;;;;;8476875;27;20205;-67
2022/01/13 10:42:19;;;;;;;10.63;6.47;;;4.20;99.90;;;;;;8484531;27;20235;-67
2022/01/13 10:46:20;;;;;;;11.27;6.47;;;4.20;99.90;;;;;;8486118;27;20179;-66
2022/01/13 10:50:25;;;;;;;9.27;5.50;;;4.20;99.90;;;;;;8477021;27;20247;-65
2022/01/13 10:54:26;;;;;;;10.07;5.40;;;4.20;99.90;;;;;;8484853;27;20183;-66
2022/01/13 10:58:33;;;;;;;11.13;5.57;;;4.30;99.90;;;;;;8478507;27;20270;-66
2022/01/13 11:02:34;;;;;;;10.40;5.93;;;4.40;99.90;;;;;;8478432;27;20171;-67
2022/01/13 11:06:35;;;;;;;9.43;5.73;;;4.50;99.90;;;;;;8484764;27;20183;-67
2022/01/13 11:10:48;;;;;;;8.87;5.40;;;4.50;99.90;;;;;;8465077;27;20246;-67
2022/01/13 11:14:55;;;;;;;9.27;5.77;;;4.60;99.90;;;;;;8482846;27;20395;-66
2022/01/13 11:18:58;;;;;;;9.00;5.03;;;4.60;99.90;;;;;;8476797;28;20216;-66
2022/01/13 11:22:59;;;;;;;8.93;5.10;;;4.70;99.90;;;;;;8475133;28;20167;-66
2022/01/13 11:27:02;;;;;;;8.50;5.40;;;4.80;99.90;;;;;;8477718;28;20184;-66
2022/01/13 11:31:03;;;;;;;10.67;5.00;;;4.80;99.90;;;;;;8464426;28;20180;-66
2022/01/13 11:35:04;;;;;;;9.23;5.23;;;4.90;99.90;;;;;;8474778;28;20194;-68
2022/01/13 11:39:06;;;;;;;7.87;4.67;;;4.90;99.90;;;;;;8484223;27;20199;-66
2022/01/13 11:43:26;;;;;;;10.90;5.10;;;4.90;99.90;;;;;;8487535;27;20183;-67
2022/01/13 11:47:26;;;;;;;9.97;5.07;;;5.00;99.90;;;;;;8489616;27;20175;-66
2022/01/13 11:51:45;;;;;;;9.87;5.00;;;5.00;99.90;;;;;;8470617;27;20172;-66
2022/01/13 11:55:55;;;;;;;8.73;4.80;;;5.10;99.90;;;;;;8459112;28;20203;-67
2022/01/13 11:59:56;;;;;;;9.57;5.00;;;5.20;99.90;;;;;;8475207;27;20283;-66
2022/01/13 12:04:03;;;;;;;9.07;4.80;;;5.30;99.90;;;;;;8474832;27;20175;-67
2022/01/13 12:08:04;;;;;;;7.77;4.67;;;5.40;99.90;;;;;;8475124;27;20180;-66
2022/01/13 12:12:08;;;;;;;6.00;4.20;;;5.60;99.90;;;;;;8491352;27;20257;-66
2022/01/13 12:16:10;;;;;;;8.60;5.67;;;5.70;99.90;;;;;;8490753;27;20203;-68
2022/01/13 12:20:57;;;;;;;8.10;4.20;;;5.80;99.90;;;;;;8470640;27;20290;-67
2022/01/13 12:25:01;;;;;;;12.10;4.83;;;5.90;99.90;;;;;;8475623;27;20256;-66
2022/01/13 12:29:10;;;;;;;7.50;4.17;;;6.00;99.90;;;;;;8476119;27;20188;-67
2022/01/13 12:33:29;;;;;;;9.90;4.90;;;6.00;1.00;;;;;;8490219;27;20187;-66
2022/01/13 12:37:30;;;;;;;6.47;3.83;;;6.00;1.00;;;;;;8470865;27;20174;-68
2022/01/13 12:41:32;;;;;;;6.73;4.23;;;6.00;1.00;;;;;;8479062;27;20194;-66
2022/01/13 12:45:33;;;;;;;7.80;4.10;;;6.10;99.90;;;;;;8490006;27;20179;-67
2022/01/13 12:49:34;;;;;;;7.57;4.50;;;6.10;99.90;;;;;;8485071;27;20191;-66
2022/01/13 12:53:36;;;;;;;6.63;3.67;;;6.00;99.90;;;;;;8488221;27;20183;-67
2022/01/13 12:57:46;;;;;;;7.27;3.50;;;5.80;1.00;;;;;;8482686;27;20204;-67
2022/01/13 13:01:47;;;;;;;6.90;3.40;;;5.70;1.00;;;;;;8476781;27;20251;-66
2022/01/13 13:05:49;;;;;;;6.97;4.03;;;5.70;1.00;;;;;;8477981;27;20185;-66
2022/01/13 13:09:52;;;;;;;8.37;4.53;;;5.70;1.00;;;;;;8487052;27;20227;-67
2022/01/13 13:13:53;;;;;;;9.80;4.57;;;5.60;1.00;;;;;;8457440;27;20209;-66
2022/01/13 13:17:55;;;;;;;6.67;3.80;;;5.60;1.00;;;;;;8478121;27;20268;-68
2022/01/13 13:21:55;;;;;;;6.93;3.90;;;5.60;1.00;;;;;;8479517;27;20272;-66
2022/01/13 13:26:00;;;;;;;8.90;4.20;;;5.60;1.00;;;;;;8474590;27;20179;-67
2022/01/13 13:30:00;;;;;;;7.17;4.87;;;5.60;1.00;;;;;;8479455;27;20207;-68
2022/01/13 13:34:06;;;;;;;8.00;3.80;;;5.60;1.00;;;;;;8479064;27;20187;-66
2022/01/13 13:38:12;;;;;;;8.63;3.83;;;5.60;1.00;;;;;;8477802;27;20199;-67
2022/01/13 13:42:14;;;;;;;6.20;3.60;;;5.50;1.00;;;;;;8471511;27;20178;-68
2022/01/13 13:46:15;;;;;;;5.63;3.20;;;5.50;1.00;;;;;;8455316;28;20172;-68
2022/01/13 13:50:16;;;;;;;7.17;3.77;;;5.50;1.00;;;;;;8477254;27;20284;-66
2022/01/13 13:54:20;;;;;;;8.27;3.37;;;5.50;1.00;;;;;;8459716;27;20187;-67
2022/01/13 13:58:22;;;;;;;6.90;2.97;;;5.50;1.00;;;;;;8481858;27;20302;-67
2022/01/13 14:02:35;;;;;;;5.37;3.23;;;5.40;1.00;;;;;;8480084;27;20186;-66
2022/01/13 14:06:44;;;;;;;7.87;3.57;;;5.40;1.00;;;;;;8486130;27;20176;-67
2022/01/13 14:10:44;;;;;;;8.77;4.00;;;5.40;1.00;;;;;;8466910;27;20183;-67
2022/01/13 14:14:45;;;;;;;9.30;3.37;;;5.40;1.00;;;;;;8488863;27;20592;-68
2022/01/13 14:19:04;;;;;;;8.93;3.40;;;5.40;1.00;;;;;;8481044;27;20204;-66
2022/01/13 14:23:14;;;;;;;6.87;3.67;;;5.30;12.20;;;;;;8477848;27;20179;-66
2022/01/13 14:27:15;;;;;;;6.23;3.43;;;5.30;24.80;;;;;;8473364;27;20176;-66
2022/01/13 14:31:17;;;;;;;5.70;3.67;;;5.30;36.30;;;;;;8485902;27;20182;-68
2022/01/13 14:35:27;;;;;;;8.60;3.10;;;5.30;61.60;;;;;;8470395;27;20175;-66
2022/01/13 14:39:28;;;;;;;5.10;3.50;;;5.20;95.20;;;;;;8480988;27;20207;-67
2022/01/13 14:43:29;;;;;;;6.07;3.20;;;5.20;99.90;;;;;;8486031;27;20175;-67
2022/01/13 14:47:30;;;;;;;6.33;3.37;;;5.10;99.90;;;;;;8487889;27;20171;-67
2022/01/13 14:51:31;;;;;;;8.47;3.17;;;5.00;99.90;;;;;;8471281;27;20288;-67
2022/01/13 14:55:32;;;;;;;9.90;3.47;;;5.00;99.90;;;;;;8451628;28;20191;-67
2022/01/13 14:59:34;;;;;;;7.87;3.23;;;5.00;99.90;;;;;;8474783;27;20214;-66
2022/01/13 15:03:36;;;;;;;6.73;3.10;;;4.90;99.90;;;;;;8483709;27;20183;-67
2022/01/13 15:07:37;;;;;;;8.60;3.70;;;4.90;99.90;;;;;;8474124;27;20180;-66
2022/01/13 15:11:38;;;;;;;5.30;3.37;;;4.80;99.90;;;;;;8480808;27;20312;-68
2022/01/13 15:15:39;;;;;;;6.93;3.13;;;4.70;99.90;;;;;;8483226;27;20199;-68
2022/01/13 15:19:45;;;;;;;3.93;3.00;;;4.60;99.90;;;;;;8465991;28;20197;-67
2022/01/13 15:23:46;;;;;;;5.90;3.13;;;4.60;99.90;;;;;;8480602;27;20255;-66
2022/01/13 15:27:46;;;;;;;7.73;3.90;;;4.60;99.90;;;;;;8478783;28;20176;-66
2022/01/13 15:31:47;;;;;;;7.70;3.17;;;4.50;99.90;;;;;;8464168;28;20187;-68
2022/01/13 15:35:50;;;;;;;4.27;2.87;;;4.50;99.90;;;;;;8464241;28;20190;-66
2022/01/13 15:39:51;;;;;;;7.97;3.70;;;4.40;99.90;;;;;;8482897;28;20282;-68
2022/01/13 15:43:51;;;;;;;5.80;3.20;;;4.40;99.90;;;;;;8486465;27;20516;-67
2022/01/13 15:47:52;;;;;;;6.50;3.40;;;4.40;99.90;;;;;;8483292;28;20213;-64
2022/01/13 15:51:53;;;;;;;5.47;2.93;;;4.30;99.90;;;;;;8470936;27;20210;-64
2022/01/13 15:55:55;;;;;;;5.30;3.17;;;4.30;99.90;;;;;;8469114;28;20202;-63
2022/01/13 15:59:55;;;;;;;8.60;4.13;;;4.20;99.90;;;;;;8476942;28;20667;-64
2022/01/13 16:03:56;;;;;;;7.27;3.30;;;4.20;99.90;;;;;;8454951;28;20186;-64
2022/01/13 16:07:57;;;;;;;6.37;3.20;;;4.20;99.90;;;;;;8485006;28;20262;-63
2022/01/13 16:11:58;;;;;;;8.80;3.53;;;4.20;99.90;;;;;;8486412;27;20182;-64
2022/01/13 16:15:59;;;;;;;6.53;2.97;;;4.10;99.90;;;;;;8478619;27;20191;-63
2022/01/13 16:20:00;;;;;;;6.67;3.03;;;4.10;99.90;;;;;;8471087;28;20582;-66
2022/01/13 16:24:01;;;;;;;6.10;3.43;;;4.00;99.90;;;;;;8479468;27;20192;-64
2022/01/13 16:28:02;;;;;;;6.37;4.23;;;3.90;99.90;;;;;;8475794;28;20367;-63
2022/01/13 16:32:03;;;;;;;8.83;3.67;;;3.90;99.90;;;;;;8475775;27;20187;-63
2022/01/13 16:36:04;;;;;;;6.70;3.63;;;4.00;99.90;;;;;;8488507;27;20187;-64
2022/01/13 16:40:09;;;;;;;6.43;3.67;;;4.00;99.90;;;;;;8474195;27;20261;-65
2022/01/13 16:44:11;;;;;;;9.17;3.70;;;4.00;99.90;;;;;;8482500;27;20212;-66
2022/01/13 16:48:17;;;;;;;5.53;3.37;;;3.90;99.90;;;;;;8478953;27;20270;-63
2022/01/13 16:52:18;;;;;;;6.47;3.57;;;4.00;99.90;;;;;;8467199;27;20294;-65
2022/01/13 16:56:19;;;;;;;7.50;3.57;;;4.00;99.90;;;;;;8457267;27;20192;-64
2022/01/13 17:00:20;;;;;;;6.43;3.73;;;4.00;99.90;;;;;;8486524;27;20217;-63
2022/01/13 17:04:21;;;;;;;6.03;3.70;;;4.10;99.90;;;;;;8466180;27;20179;-64
2022/01/13 17:08:23;;;;;;;6.07;3.80;;;4.10;99.90;;;;;;8476889;27;20197;-65
2022/01/13 17:12:24;;;;;;;7.80;3.83;;;4.20;99.90;;;;;;8471135;27;20208;-64
2022/01/13 17:16:25;;;;;;;7.73;3.67;;;4.30;99.90;;;;;;8464980;27;20201;-66
2022/01/13 17:20:26;;;;;;;6.87;4.07;;;4.30;99.90;;;;;;8479007;27;20211;-66
2022/01/13 17:24:27;;;;;;;6.80;3.63;;;4.30;99.90;;;;;;8490151;27;20179;-63
2022/01/13 17:28:29;;;;;;;5.53;3.57;;;4.30;99.90;;;;;;8488070;27;20187;-64
2022/01/13 17:32:31;;;;;;;6.43;3.80;;;4.40;99.90;;;;;;8474901;27;20175;-67
2022/01/13 17:36:34;;;;;;;8.23;4.00;;;4.40;99.90;;;;;;8487734;27;20226;-64
2022/01/13 17:40:35;;;;;;;6.97;3.80;;;4.40;99.90;;;;;;8455251;27;20207;-65
2022/01/13 17:44:36;;;;;;;10.23;4.33;;;4.40;99.90;;;;;;8460279;27;20293;-64
2022/01/13 17:48:37;;;;;;;9.40;4.30;;;4.40;99.90;;;;;;8457244;27;20187;-65
2022/01/13 17:52:38;;;;;;;8.70;4.33;;;4.40;99.90;;;;;;8483522;27;20179;-63
2022/01/13 17:56:39;;;;;;;8.70;4.47;;;4.40;99.90;;;;;;8485686;27;20198;-63
2022/01/13 18:00:40;;;;;;;9.80;4.70;;;4.40;99.90;;;;;;8462476;27;20209;-64
2022/01/13 18:04:42;;;;;;;7.30;4.30;;;4.50;99.90;;;;;;8474522;27;20168;-63
2022/01/13 18:08:43;;;;;;;12.17;5.40;;;4.50;99.90;;;;;;8467076;27;20176;-63
2022/01/13 18:12:49;;;;;;;10.80;5.53;;;4.40;99.90;;;;;;8470650;27;20183;-65
2022/01/13 18:16:51;;;;;;;11.93;6.03;;;4.40;99.90;;;;;;8467583;27;20213;-64
2022/01/13 18:20:53;;;;;;;11.03;6.23;;;4.40;99.90;;;;;;8473012;27;20273;-64
2022/01/13 18:24:53;;;;;;;10.90;6.20;;;4.40;99.90;;;;;;8478995;27;20179;-64
2022/01/13 18:28:54;;;;;;;15.07;6.67;;;4.40;99.90;;;;;;8483304;27;20179;-65
2022/01/13 18:32:55;;;;;;;13.57;6.53;;;4.40;99.90;;;;;;8468210;27;20210;-64
2022/01/13 18:36:57;;;;;;;14.77;8.37;;;4.30;99.90;;;;;;8479162;27;20179;-66
2022/01/13 18:40:59;;;;;;;13.93;7.20;;;4.30;99.90;;;;;;8474268;27;20201;-66
2022/01/13 18:45:02;;;;;;;11.07;6.70;;;4.30;99.90;;;;;;8451985;28;20172;-65
2022/01/13 18:49:04;;;;;;;16.30;7.90;;;4.30;99.90;;;;;;8452454;28;20197;-63
2022/01/13 18:53:12;;;;;;;13.30;7.60;;;4.30;99.90;;;;;;8484802;27;20258;-65
2022/01/13 18:57:13;;;;;;;14.10;7.40;;;4.30;99.90;;;;;;8481598;27;20199;-64
2022/01/13 19:01:14;;;;;;;18.23;8.37;;;4.30;99.90;;;;;;8470443;27;20242;-65
2022/01/13 19:05:15;;;;;;;16.87;8.67;;;4.20;99.90;;;;;;8460696;27;20191;-64
2022/01/13 19:09:17;;;;;;;16.73;9.50;;;4.20;99.90;;;;;;8469314;27;20172;-65
2022/01/13 19:13:18;;;;;;;19.33;9.60;;;4.20;99.90;;;;;;8475164;27;20176;-64
2022/01/13 19:17:30;;;;;;;15.90;8.43;;;4.20;99.90;;;;;;8478926;27;20273;-64
2022/01/13 19:21:31;;;;;;;18.77;9.50;;;4.20;99.90;;;;;;8479996;27;20201;-65
2022/01/13 19:25:34;;;;;;;17.90;9.63;;;4.20;99.90;;;;;;8469411;27;20201;-65
2022/01/13 19:29:35;;;;;;;16.17;9.90;;;4.20;99.90;;;;;;8477198;27;20186;-63
2022/01/13 19:33:37;;;;;;;16.67;10.03;;;4.20;99.90;;;;;;8472630;28;20181;-65
2022/01/13 19:37:39;;;;;;;19.80;9.70;;;4.10;99.90;;;;;;8469707;27;20180;-64
2022/01/13 19:41:39;;;;;;;18.13;10.60;;;4.10;99.90;;;;;;8485281;27;20183;-63
2022/01/13 19:45:41;;;;;;;19.50;10.20;;;4.10;99.90;;;;;;8472638;28;20179;-66
2022/01/13 19:49:42;;;;;;;23.77;11.83;;;4.10;99.90;;;;;;8468083;27;20413;-64
2022/01/13 19:53:48;;;;;;;18.63;11.17;;;4.10;99.90;;;;;;8469748;28;20172;-63
2022/01/13 19:57:50;;;;;;;23.50;11.43;;;4.10;99.90;;;;;;8474822;27;20202;-64
2022/01/13 20:01:51;;;;;;;22.00;11.57;;;4.10;99.90;;;;;;8467178;27;20183;-63
2022/01/13 20:05:52;;;;;;;22.90;11.50;;;4.00;99.90;;;;;;8485817;27;20186;-64
2022/01/13 20:09:53;;;;;;;19.60;11.27;;;4.00;99.90;;;;;;8474513;27;20184;-64
2022/01/13 20:13:54;;;;;;;21.03;11.10;;;4.00;99.90;;;;;;8472405;27;20176;-63
2022/01/13 20:17:55;;;;;;;19.77;11.33;;;4.00;99.90;;;;;;8479502;27;20201;-63
2022/01/13 20:21:56;;;;;;;20.30;11.20;;;4.00;99.90;;;;;;8480989;27;20179;-64
2022/01/13 20:25:57;;;;;;;19.07;11.27;;;3.90;99.90;;;;;;8474529;27;20269;-63
2022/01/13 20:29:58;;;;;;;21.83;12.23;;;3.90;99.90;;;;;;8484400;27;20187;-64
2022/01/13 20:34:00;;;;;;;17.63;12.20;;;3.90;99.90;;;;;;8482947;27;20183;-65
2022/01/13 20:38:02;;;;;;;19.70;11.93;;;3.90;99.90;;;;;;8477744;27;20237;-63
2022/01/13 20:42:04;;;;;;;20.37;12.40;;;3.90;99.90;;;;;;8481778;27;20180;-63
2022/01/13 20:46:05;;;;;;;24.80;12.37;;;3.90;99.90;;;;;;8486779;27;20185;-63
2022/01/13 20:50:08;;;;;;;20.47;12.53;;;3.90;99.90;;;;;;8474915;27;20197;-63
2022/01/13 20:54:10;;;;;;;24.90;13.17;;;3.80;99.90;;;;;;8487805;27;20186;-64
2022/01/13 20:58:11;;;;;;;23.00;13.20;;;3.80;99.90;;;;;;8478508;27;20229;-65
2022/01/13 21:02:14;;;;;;;24.70;14.10;;;3.80;99.90;;;;;;8480900;27;20485;-64
2022/01/13 21:06:17;;;;;;;23.83;14.23;;;3.80;99.90;;;;;;8479229;27;20213;-64
2022/01/13 21:10:19;;;;;;;25.40;13.73;;;3.80;99.90;;;;;;8478299;27;20186;-63
2022/01/13 21:14:20;;;;;;;22.77;13.33;;;3.70;99.90;;;;;;8488307;27;20639;-63
2022/01/13 21:18:22;;;;;;;24.83;14.17;;;3.70;99.90;;;;;;8480805;27;20209;-65